createdAt,value
2019-02-09T00:02:18.344Z,4.20
2019-02-09T00:04:48.503Z,4.20
2019-02-09T00:07:18.656Z,4.20
2019-02-09T00:09:48.944Z,4.20
2019-02-09T00:12:19.104Z,4.20
2019-02-09T00:15:08.187Z,4.20
2019-02-09T00:17:38.297Z,4.20
2019-02-09T00:20:08.677Z,4.20
2019-02-09T00:22:38.952Z,4.20
2019-02-09T00:25:09.012Z,4.30
2019-02-09T00:27:39.231Z,4.30
2019-02-09T00:30:10.309Z,4.30
2019-02-09T00:32:40.500Z,4.30
2019-02-09T00:35:11.207Z,4.30
2019-02-09T00:37:41.449Z,4.40
2019-02-09T00:40:12.024Z,4.40
2019-02-09T00:42:42.107Z,4.40
2019-02-09T00:45:12.643Z,4.30
2019-02-09T00:47:42.839Z,4.40
2019-02-09T00:50:13.429Z,4.40
2019-02-09T00:52:43.553Z,4.40
2019-02-09T00:55:14.076Z,4.30
2019-02-09T00:57:44.195Z,4.30
2019-02-09T01:00:17.633Z,4.30
2019-02-09T01:02:48.004Z,4.20
2019-02-09T01:05:20.243Z,4.30
2019-02-09T01:07:50.680Z,4.20
2019-02-09T01:10:21.411Z,4.20
2019-02-09T01:12:51.532Z,4.20
2019-02-09T01:15:21.827Z,4.20
2019-02-09T01:17:52.140Z,4.20
2019-02-09T01:20:23.516Z,4.20
2019-02-09T01:22:54.309Z,4.20
2019-02-09T01:25:24.348Z,4.20
2019-02-09T01:27:54.476Z,4.20
2019-02-09T01:30:26.054Z,4.20
2019-02-09T01:32:56.444Z,4.20
2019-02-09T01:35:26.699Z,4.20
2019-02-09T01:37:56.991Z,4.20
2019-02-09T01:40:27.538Z,4.20
2019-02-09T01:42:57.965Z,4.10
2019-02-09T01:45:29.483Z,4.10
2019-02-09T01:47:59.619Z,4.10
2019-02-09T01:50:31.275Z,4.10
2019-02-09T01:53:01.522Z,4.10
2019-02-09T01:55:31.712Z,4.10
2019-02-09T01:58:01.951Z,4.10
2019-02-09T02:00:33.699Z,4.10
2019-02-09T02:03:04.136Z,4.10
2019-02-09T02:05:34.239Z,4.10
2019-02-09T02:08:04.584Z,4.10
2019-02-09T02:10:38.682Z,4.10
2019-02-09T02:13:10.199Z,4.10
2019-02-09T02:15:41.112Z,4.10
2019-02-09T02:18:11.655Z,4.10
2019-02-09T02:20:42.009Z,4.10
2019-02-09T02:23:12.137Z,4.10
2019-02-09T02:25:42.369Z,4.10
2019-02-09T02:28:12.473Z,4.00
2019-02-09T02:30:42.627Z,4.00
2019-02-09T02:33:12.799Z,4.00
2019-02-09T02:35:42.975Z,4.00
2019-02-09T02:38:13.148Z,4.00
2019-02-09T02:40:43.287Z,4.00
2019-02-09T02:43:13.411Z,4.00
2019-02-09T02:45:43.553Z,4.00
2019-02-09T02:48:13.740Z,3.90
2019-02-09T02:50:43.897Z,3.90
2019-02-09T02:53:13.982Z,3.90
2019-02-09T02:55:44.074Z,3.90
2019-02-09T02:58:14.323Z,3.90
2019-02-09T03:00:44.411Z,3.90
2019-02-09T03:03:14.666Z,3.90
2019-02-09T03:05:44.947Z,3.90
2019-02-09T03:08:15.126Z,3.90
2019-02-09T03:10:45.321Z,3.90
2019-02-09T03:13:15.519Z,3.90
2019-02-09T03:15:45.708Z,3.90
2019-02-09T03:18:15.886Z,3.90
2019-02-09T03:20:46.065Z,3.90
2019-02-09T03:23:16.239Z,3.90
2019-02-09T03:25:46.474Z,3.90
2019-02-09T03:28:16.635Z,3.90
2019-02-09T03:30:48.898Z,3.90
2019-02-09T03:33:18.444Z,3.90
2019-02-09T03:35:48.377Z,3.90
2019-02-09T03:38:18.471Z,3.90
2019-02-09T03:40:48.567Z,3.90
2019-02-09T03:43:18.613Z,3.90
2019-02-09T03:45:48.699Z,3.90
2019-02-09T03:48:18.756Z,3.90
2019-02-09T03:50:48.924Z,3.90
2019-02-09T03:53:19.175Z,3.90
2019-02-09T03:55:49.271Z,4.00
2019-02-09T03:58:19.542Z,4.00
2019-02-09T04:00:55.108Z,4.00
2019-02-09T04:03:21.588Z,4.00
2019-02-09T04:05:52.028Z,4.00
2019-02-09T04:08:22.123Z,4.00
2019-02-09T04:10:52.363Z,4.00
2019-02-09T04:13:22.522Z,4.00
2019-02-09T04:15:52.685Z,4.00
2019-02-09T04:18:22.895Z,4.00
2019-02-09T04:20:53.167Z,4.00
2019-02-09T04:23:23.235Z,4.00
2019-02-09T04:25:53.494Z,4.10
2019-02-09T04:28:23.712Z,4.10
2019-02-09T04:30:53.800Z,4.10
2019-02-09T04:33:23.957Z,4.10
2019-02-09T04:35:54.135Z,4.10
2019-02-09T04:38:24.288Z,4.10
2019-02-09T04:40:54.477Z,4.00
2019-02-09T04:43:24.736Z,4.00
2019-02-09T04:45:54.819Z,4.00
2019-02-09T04:48:25.094Z,4.00
2019-02-09T04:50:55.358Z,4.00
2019-02-09T04:53:25.502Z,3.90
2019-02-09T04:55:55.628Z,3.90
2019-02-09T04:58:25.818Z,3.90
2019-02-09T05:00:55.968Z,3.90
2019-02-09T05:03:26.160Z,3.90
2019-02-09T05:05:56.480Z,3.90
2019-02-09T05:08:26.632Z,3.90
2019-02-09T05:10:56.775Z,3.80
2019-02-09T05:13:26.960Z,3.80
2019-02-09T05:15:57.083Z,3.80
2019-02-09T05:18:27.248Z,3.80
2019-02-09T05:20:57.395Z,3.80
2019-02-09T05:23:27.573Z,3.80
2019-02-09T05:25:57.671Z,3.80
2019-02-09T05:28:27.875Z,3.80
2019-02-09T05:30:57.972Z,3.80
2019-02-09T05:33:28.123Z,3.80
2019-02-09T05:35:58.307Z,3.80
2019-02-09T05:38:28.693Z,3.80
2019-02-09T05:40:58.802Z,3.70
2019-02-09T05:43:28.971Z,3.80
2019-02-09T05:45:59.149Z,3.80
2019-02-09T05:48:29.207Z,3.80
2019-02-09T05:50:59.365Z,3.80
2019-02-09T05:53:29.547Z,3.80
2019-02-09T05:55:59.853Z,3.80
2019-02-09T05:58:29.991Z,3.80
2019-02-09T06:01:00.219Z,3.90
2019-02-09T06:03:30.455Z,3.90
2019-02-09T06:06:00.548Z,3.90
2019-02-09T06:08:30.798Z,3.90
2019-02-09T06:11:00.891Z,3.80
2019-02-09T06:13:31.135Z,3.80
2019-02-09T06:16:02.468Z,3.80
2019-02-09T06:18:32.703Z,3.80
2019-02-09T06:21:02.903Z,3.90
2019-02-09T06:23:33.220Z,3.90
2019-02-09T06:26:03.848Z,3.90
2019-02-09T06:28:52.874Z,6.20
2019-02-09T06:31:23.094Z,3.90
2019-02-09T06:33:53.167Z,3.90
2019-02-09T06:36:23.399Z,3.90
2019-02-09T06:38:53.504Z,3.80
2019-02-09T06:41:23.660Z,3.90
2019-02-09T06:43:53.847Z,3.90
2019-02-09T06:46:23.996Z,3.90
2019-02-09T06:48:54.161Z,3.80
2019-02-09T06:51:24.432Z,3.90
2019-02-09T06:53:54.551Z,3.90
2019-02-09T06:56:24.639Z,3.90
2019-02-09T06:58:54.871Z,3.90
2019-02-09T07:01:25.183Z,3.90
2019-02-09T07:03:55.320Z,4.00
2019-02-09T07:06:25.561Z,4.00
2019-02-09T07:08:55.760Z,4.00
2019-02-09T07:11:25.867Z,4.00
2019-02-09T07:13:56.107Z,4.00
2019-02-09T07:16:26.292Z,4.00
2019-02-09T07:18:56.573Z,4.00
2019-02-09T07:21:26.871Z,4.00
2019-02-09T07:23:57.060Z,4.00
2019-02-09T07:26:27.219Z,4.00
2019-02-09T07:28:57.396Z,4.00
2019-02-09T07:31:27.546Z,4.00
2019-02-09T07:33:57.784Z,4.10
2019-02-09T07:36:27.892Z,4.00
2019-02-09T07:38:58.076Z,4.10
2019-02-09T07:41:28.368Z,4.10
2019-02-09T07:43:58.476Z,4.10
2019-02-09T07:46:30.077Z,4.10
2019-02-09T07:49:00.316Z,4.10
2019-02-09T07:51:30.483Z,4.10
2019-02-09T07:54:00.651Z,4.10
2019-02-09T07:56:33.065Z,4.10
2019-02-09T07:59:03.255Z,4.10
2019-02-09T08:01:33.440Z,4.00
2019-02-09T08:04:03.588Z,4.10
2019-02-09T08:06:33.792Z,4.10
2019-02-09T08:09:05.603Z,4.10
2019-02-09T08:11:35.807Z,4.10
2019-02-09T08:14:06.080Z,4.10
2019-02-09T08:16:36.335Z,4.10
2019-02-09T08:19:06.629Z,4.10
2019-02-09T08:21:36.823Z,4.10
2019-02-09T08:24:07.373Z,4.10
2019-02-09T08:26:37.739Z,4.10
2019-02-09T08:29:07.823Z,4.10
2019-02-09T08:31:38.059Z,4.10
2019-02-09T08:34:08.263Z,4.10
2019-02-09T08:36:38.428Z,4.10
2019-02-09T08:39:09.381Z,4.10
2019-02-09T08:41:39.539Z,4.00
2019-02-09T08:44:09.787Z,4.00
2019-02-09T08:46:39.880Z,3.90
2019-02-09T08:49:10.131Z,3.90
2019-02-09T08:51:40.316Z,3.90
2019-02-09T08:54:10.494Z,3.90
2019-02-09T08:56:40.568Z,3.90
2019-02-09T08:59:10.744Z,3.80
2019-02-09T09:01:40.789Z,3.80
2019-02-09T09:04:11.015Z,3.80
2019-02-09T09:06:41.259Z,3.80
2019-02-09T09:09:12.375Z,3.80
2019-02-09T09:11:42.636Z,3.70
2019-02-09T09:14:12.729Z,3.70
2019-02-09T09:16:42.987Z,3.70
2019-02-09T09:19:13.263Z,3.60
2019-02-09T09:21:43.471Z,3.60
2019-02-09T09:24:13.608Z,3.60
2019-02-09T09:26:43.785Z,3.60
2019-02-09T09:29:13.935Z,3.60
2019-02-09T09:31:44.067Z,3.60
2019-02-09T09:34:14.209Z,3.60
2019-02-09T09:36:44.392Z,3.60
2019-02-09T09:39:14.643Z,3.60
2019-02-09T09:41:44.793Z,3.60
2019-02-09T09:44:14.982Z,3.70
2019-02-09T09:46:45.176Z,3.70
2019-02-09T09:49:15.443Z,3.70
2019-02-09T09:51:45.583Z,3.70
2019-02-09T09:54:15.736Z,3.80
2019-02-09T09:56:45.914Z,3.80
2019-02-09T09:59:15.972Z,3.80
2019-02-09T10:01:46.215Z,3.90
2019-02-09T10:04:16.370Z,3.90
2019-02-09T10:06:46.463Z,4.00
2019-02-09T10:09:16.652Z,4.00
2019-02-09T10:11:46.700Z,4.00
2019-02-09T10:14:16.891Z,4.00
2019-02-09T10:16:48.108Z,4.00
2019-02-09T10:19:18.355Z,4.00
2019-02-09T10:21:48.686Z,4.00
2019-02-09T10:24:18.839Z,4.00
2019-02-09T10:26:48.923Z,4.00
2019-02-09T10:29:19.091Z,4.00
2019-02-09T10:31:49.163Z,4.00
2019-02-09T10:34:19.400Z,4.00
2019-02-09T10:36:49.496Z,4.00
2019-02-09T10:39:19.635Z,4.00
2019-02-09T10:41:49.731Z,4.00
2019-02-09T10:44:19.999Z,4.00
2019-02-09T10:46:50.636Z,4.00
2019-02-09T10:49:20.700Z,4.00
2019-02-09T10:51:50.959Z,4.00
2019-02-09T10:54:21.136Z,4.00
2019-02-09T10:56:51.387Z,3.90
2019-02-09T10:59:21.593Z,3.90
2019-02-09T11:01:51.736Z,3.80
2019-02-09T11:04:21.932Z,3.90
2019-02-09T11:06:52.281Z,3.90
2019-02-09T11:09:22.876Z,3.80
2019-02-09T11:11:53.103Z,3.80
2019-02-09T11:14:24.882Z,3.70
2019-02-09T11:16:55.066Z,3.70
2019-02-09T11:19:25.249Z,3.70
2019-02-09T11:21:55.356Z,3.70
2019-02-09T11:24:25.460Z,3.70
2019-02-09T11:26:55.556Z,3.70
2019-02-09T11:29:25.796Z,3.70
2019-02-09T11:31:55.943Z,3.70
2019-02-09T11:34:26.140Z,3.70
2019-02-09T11:36:56.355Z,3.60
2019-02-09T11:39:26.451Z,3.60
2019-02-09T11:41:56.583Z,3.60
2019-02-09T11:44:26.781Z,3.60
2019-02-09T11:46:56.940Z,3.50
2019-02-09T11:49:27.027Z,3.60
2019-02-09T11:51:57.263Z,3.60
2019-02-09T11:54:27.371Z,3.60
2019-02-09T11:56:57.535Z,3.60
2019-02-09T11:59:27.631Z,3.60
2019-02-09T12:01:57.823Z,3.70
2019-02-09T12:04:27.968Z,3.70
2019-02-09T12:06:58.166Z,3.70
2019-02-09T12:09:28.343Z,3.70
2019-02-09T12:11:58.595Z,3.70
2019-02-09T12:14:28.751Z,3.70
2019-02-09T12:16:58.894Z,3.70
2019-02-09T12:19:29.092Z,3.70
2019-02-09T12:21:59.337Z,3.70
2019-02-09T12:24:29.443Z,3.70
2019-02-09T12:26:59.664Z,3.70
2019-02-09T12:29:29.759Z,3.70
2019-02-09T12:32:00.516Z,3.60
2019-02-09T12:34:36.263Z,3.70
2019-02-09T12:37:06.772Z,3.60
2019-02-09T12:39:36.960Z,3.70
2019-02-09T12:42:07.235Z,3.70
2019-02-09T12:44:37.408Z,3.70
2019-02-09T12:47:07.577Z,3.60
2019-02-09T12:49:37.749Z,3.60
2019-02-09T12:52:08.131Z,3.60
2019-02-09T12:54:38.215Z,3.60
2019-02-09T12:57:08.411Z,3.60
2019-02-09T12:59:38.569Z,3.60
2019-02-09T13:02:08.671Z,3.60
2019-02-09T13:04:38.908Z,3.50
2019-02-09T13:07:09.103Z,3.50
2019-02-09T13:09:39.371Z,3.60
2019-02-09T13:12:09.631Z,3.50
2019-02-09T13:14:39.799Z,3.50
2019-02-09T13:17:09.991Z,3.50
2019-02-09T13:19:40.239Z,3.60
2019-02-09T13:22:10.402Z,3.60
2019-02-09T13:24:40.539Z,3.50
2019-02-09T13:27:12.425Z,3.60
2019-02-09T13:29:42.967Z,3.50
2019-02-09T13:32:13.268Z,3.60
2019-02-09T13:34:43.372Z,3.60
2019-02-09T13:37:13.619Z,3.60
2019-02-09T13:39:43.807Z,3.60
2019-02-09T13:42:14.084Z,3.60
2019-02-09T13:44:44.243Z,3.70
2019-02-09T13:47:14.492Z,3.60
2019-02-09T13:49:44.619Z,3.60
2019-02-09T13:52:15.791Z,3.60
2019-02-09T13:54:45.871Z,3.60
2019-02-09T13:57:16.085Z,3.60
2019-02-09T13:59:46.224Z,3.60
2019-02-09T14:02:16.407Z,3.60
2019-02-09T14:04:46.675Z,3.60
2019-02-09T14:07:16.871Z,3.60
2019-02-09T14:09:47.025Z,3.70
2019-02-09T14:12:17.240Z,3.70
2019-02-09T14:14:47.401Z,3.60
2019-02-09T14:17:17.690Z,3.60
2019-02-09T14:19:47.743Z,3.60
2019-02-09T14:22:17.998Z,3.60
2019-02-09T14:24:48.071Z,3.60
2019-02-09T14:27:20.007Z,3.60
2019-02-09T14:29:50.168Z,3.60
2019-02-09T14:32:20.320Z,3.60
2019-02-09T14:34:50.435Z,3.60
2019-02-09T14:37:20.619Z,3.60
2019-02-09T14:39:50.767Z,3.60
2019-02-09T14:42:20.964Z,3.60
2019-02-09T14:44:51.203Z,3.60
2019-02-09T14:47:22.036Z,3.60
2019-02-09T14:49:52.165Z,3.50
2019-02-09T14:52:22.524Z,3.50
2019-02-09T14:54:52.708Z,3.50
2019-02-09T14:57:22.908Z,3.50
2019-02-09T14:59:53.175Z,3.50
2019-02-09T15:02:23.275Z,3.50
2019-02-09T15:04:53.368Z,3.60
2019-02-09T15:07:23.612Z,3.50
2019-02-09T15:09:53.711Z,3.50
2019-02-09T15:12:23.962Z,3.60
2019-02-09T15:14:54.144Z,3.50
2019-02-09T15:17:24.290Z,3.50
2019-02-09T15:19:54.479Z,3.50
2019-02-09T15:22:24.751Z,3.50
2019-02-09T15:24:54.947Z,3.50
2019-02-09T15:27:25.384Z,3.50
2019-02-09T15:29:55.513Z,3.50
2019-02-09T15:32:25.679Z,3.60
2019-02-09T15:34:56.036Z,3.60
2019-02-09T15:37:26.227Z,3.60
2019-02-09T15:39:56.475Z,3.60
2019-02-09T15:42:26.713Z,3.60
2019-02-09T15:44:57.843Z,3.60
2019-02-09T15:47:27.936Z,3.60
2019-02-09T15:49:58.315Z,3.60
2019-02-09T15:52:28.512Z,3.50
2019-02-09T15:54:58.608Z,3.50
2019-02-09T15:57:28.751Z,3.50
2019-02-09T16:00:12.397Z,3.50
2019-02-09T16:02:42.496Z,3.50
2019-02-09T16:05:12.891Z,3.60
2019-02-09T16:07:42.970Z,3.60
2019-02-09T16:10:13.032Z,3.60
2019-02-09T16:12:43.308Z,3.60
2019-02-09T16:15:18.896Z,3.60
2019-02-09T16:17:49.167Z,3.70
2019-02-09T16:20:20.721Z,3.70
2019-02-09T16:22:51.147Z,3.60
2019-02-09T16:25:21.344Z,3.70
2019-02-09T16:27:51.652Z,3.70
2019-02-09T16:30:23.331Z,3.70
2019-02-09T16:32:53.624Z,3.70
2019-02-09T16:35:24.383Z,3.70
2019-02-09T16:37:54.673Z,3.70
2019-02-09T16:40:26.479Z,3.70
2019-02-09T16:42:57.451Z,3.70
2019-02-09T16:45:34.620Z,3.70
2019-02-09T16:48:05.404Z,3.70
2019-02-09T16:50:35.608Z,3.70
2019-02-09T16:53:05.908Z,3.70
2019-02-09T16:55:36.063Z,3.70
2019-02-09T16:58:06.707Z,3.80
2019-02-09T17:00:39.230Z,3.70
2019-02-09T17:03:10.432Z,3.80
2019-02-09T17:05:40.824Z,3.80
2019-02-09T17:08:11.393Z,3.80
2019-02-09T17:10:41.530Z,3.80
2019-02-09T17:13:11.698Z,3.80
2019-02-09T17:15:41.936Z,3.90
2019-02-09T17:18:12.091Z,3.90
2019-02-09T17:20:42.284Z,3.90
2019-02-09T17:23:12.475Z,3.90
2019-02-09T17:25:42.663Z,3.80
2019-02-09T17:28:12.811Z,3.80
2019-02-09T17:30:43.060Z,3.70
2019-02-09T17:33:13.155Z,3.70
2019-02-09T17:35:43.426Z,3.70
2019-02-09T17:38:13.591Z,3.70
2019-02-09T17:40:46.184Z,3.80
2019-02-09T17:43:16.409Z,3.80
2019-02-09T17:45:58.825Z,3.80
2019-02-09T17:48:29.015Z,3.80
2019-02-09T17:50:59.135Z,3.80
2019-02-09T17:53:29.355Z,3.70
2019-02-09T17:55:59.507Z,3.70
2019-02-09T17:58:29.643Z,3.70
2019-02-09T18:01:03.052Z,3.70
2019-02-09T18:03:33.244Z,3.60
2019-02-09T18:06:03.345Z,3.60
2019-02-09T18:08:33.498Z,3.60
2019-02-09T18:11:03.795Z,3.70
2019-02-09T18:13:34.191Z,3.60
2019-02-09T18:16:05.331Z,3.60
2019-02-09T18:18:35.660Z,3.60
2019-02-09T18:21:05.903Z,3.60
2019-02-09T18:23:36.007Z,3.50
2019-02-09T18:26:06.475Z,3.50
2019-02-09T18:28:36.644Z,3.50
2019-02-09T18:31:07.119Z,3.50
2019-02-09T18:33:37.279Z,3.50
2019-02-09T18:36:07.440Z,3.50
2019-02-09T18:38:37.664Z,3.50
2019-02-09T18:41:07.751Z,3.50
2019-02-09T18:43:37.904Z,3.50
2019-02-09T18:46:08.192Z,3.40
2019-02-09T18:48:38.351Z,3.40
2019-02-09T18:51:08.432Z,3.50
2019-02-09T18:53:38.687Z,3.50
2019-02-09T18:56:08.830Z,3.50
2019-02-09T18:58:38.944Z,3.50
2019-02-09T19:01:09.215Z,3.50
2019-02-09T19:03:39.594Z,3.50
2019-02-09T19:06:09.880Z,3.60
2019-02-09T19:08:39.980Z,3.60
2019-02-09T19:11:10.228Z,3.60
2019-02-09T19:13:40.424Z,3.70
2019-02-09T19:16:10.684Z,3.70
2019-02-09T19:18:40.772Z,3.70
2019-02-09T19:21:15.772Z,3.80
2019-02-09T19:23:46.052Z,3.90
2019-02-09T19:26:16.251Z,3.90
2019-02-09T19:28:46.432Z,3.90
2019-02-09T19:31:16.772Z,3.90
2019-02-09T19:33:47.020Z,3.90
2019-02-09T19:36:17.192Z,4.10
2019-02-09T19:38:47.314Z,4.10
2019-02-09T19:41:17.363Z,4.10
2019-02-09T19:43:47.509Z,4.10
2019-02-09T19:46:17.687Z,4.10
2019-02-09T19:48:47.814Z,4.10
2019-02-09T19:51:18.065Z,4.10
2019-02-09T19:53:48.151Z,4.20
2019-02-09T19:56:18.193Z,4.20
2019-02-09T19:58:48.383Z,4.10
2019-02-09T20:01:18.388Z,4.10
2019-02-09T20:03:48.416Z,4.10
2019-02-09T20:06:18.644Z,4.10
2019-02-09T20:08:48.756Z,4.10
2019-02-09T20:11:19.051Z,4.10
2019-02-09T20:13:49.208Z,4.10
2019-02-09T20:16:19.316Z,4.20
2019-02-09T20:18:49.464Z,4.20
2019-02-09T20:21:20.023Z,4.20
2019-02-09T20:23:50.119Z,4.30
2019-02-09T20:26:20.304Z,4.40
2019-02-09T20:28:50.462Z,4.40
2019-02-09T20:31:20.647Z,4.40
2019-02-09T20:33:50.899Z,4.40
2019-02-09T20:36:21.052Z,4.50
2019-02-09T20:38:51.207Z,4.50
2019-02-09T20:41:21.445Z,4.50
2019-02-09T20:43:51.652Z,4.50
2019-02-09T20:46:21.889Z,4.50
2019-02-09T20:48:52.084Z,4.50
2019-02-09T20:51:22.253Z,4.50
2019-02-09T20:53:52.428Z,4.40
2019-02-09T20:56:22.672Z,4.40
2019-02-09T20:58:52.824Z,4.40
2019-02-09T21:01:23.044Z,4.30
2019-02-09T21:03:53.367Z,4.30
2019-02-09T21:06:24.073Z,4.30
2019-02-09T21:08:54.285Z,4.20
2019-02-09T21:11:24.484Z,4.20
2019-02-09T21:13:54.636Z,4.20
2019-02-09T21:16:24.824Z,4.20
2019-02-09T21:18:55.000Z,4.20
2019-02-09T21:21:25.118Z,4.20
2019-02-09T21:23:55.716Z,4.20
2019-02-09T21:26:25.911Z,4.20
2019-02-09T21:28:56.076Z,4.10
2019-02-09T21:31:26.252Z,4.20
2019-02-09T21:33:56.495Z,4.10
2019-02-09T21:36:26.735Z,4.10
2019-02-09T21:38:56.930Z,4.10
2019-02-09T21:41:27.152Z,4.20
2019-02-09T21:43:57.259Z,4.10
2019-02-09T21:46:27.500Z,4.10
2019-02-09T21:48:57.600Z,4.10
2019-02-09T21:51:27.852Z,4.10
2019-02-09T21:53:57.927Z,4.00
2019-02-09T21:56:28.099Z,4.00
2019-02-09T21:58:58.270Z,4.10
2019-02-09T22:01:28.420Z,4.10
2019-02-09T22:03:58.633Z,4.10
2019-02-09T22:06:28.827Z,4.10
2019-02-09T22:08:59.083Z,4.20
2019-02-09T22:11:29.520Z,4.20
2019-02-09T22:13:59.744Z,4.20
2019-02-09T22:16:29.942Z,4.20
2019-02-09T22:19:00.429Z,4.20
2019-02-09T22:21:30.895Z,4.20
2019-02-09T22:24:01.290Z,4.30
2019-02-09T22:26:31.540Z,4.20
2019-02-09T22:29:02.111Z,4.30
2019-02-09T22:31:32.296Z,4.30
2019-02-09T22:34:02.573Z,4.30
2019-02-09T22:36:37.136Z,4.30
2019-02-09T22:39:05.868Z,4.30
2019-02-09T22:41:36.179Z,4.30
2019-02-09T22:44:06.650Z,4.20
2019-02-09T22:46:36.868Z,4.30
2019-02-09T22:49:07.012Z,4.20
2019-02-09T22:51:37.213Z,4.30
2019-02-09T22:54:09.024Z,4.30
2019-02-09T22:56:39.087Z,4.30
2019-02-09T22:59:09.248Z,4.30
2019-02-09T23:01:52.017Z,4.30
2019-02-09T23:05:05.925Z,4.30
2019-02-09T23:07:36.244Z,4.30
2019-02-09T23:10:10.960Z,4.30
2019-02-09T23:12:48.360Z,4.30
2019-02-09T23:15:13.245Z,4.30
2019-02-09T23:17:43.301Z,4.30
2019-02-09T23:20:13.389Z,4.30
2019-02-09T23:22:43.413Z,4.30
2019-02-09T23:25:13.193Z,4.30
2019-02-09T23:27:43.149Z,4.30
2019-02-09T23:30:13.550Z,4.30
2019-02-09T23:32:43.567Z,4.30
2019-02-09T23:35:13.489Z,4.30
2019-02-09T23:37:44.283Z,4.30
2019-02-09T23:40:14.100Z,4.30
2019-02-09T23:42:43.943Z,4.30
2019-02-09T23:45:13.857Z,4.30
2019-02-09T23:47:43.769Z,4.40
2019-02-09T23:50:13.813Z,4.40
2019-02-09T23:52:43.577Z,4.30
2019-02-09T23:55:13.529Z,4.30
2019-02-09T23:57:43.300Z,4.30
